sensor_id;sensor_type;location;lat;lon;timestamp;temperature;humidity
19728;DHT22;10015;52.530;13.390;2024-01-15T00:00:49;3.70;99.90
19728;DHT22;10015;52.530;13.390;2024-01-15T00:03:15;3.70;99.90
19728;DHT22;10015;52.530;13.390;2024-01-15T00:05:42;3.70;99.90
19728;DHT22;10015;52.530;13.390;2024-01-15T00:08:07;3.70;99.90
19728;DHT22;10015;52.530;13.390;2024-01-15T00:10:33;3.80;99.90
19728;DHT22;10015;52.530;13.390;2024-01-15T00:12:59;3.80;99.90
19728;DHT22;10015;52.530;13.390;2024-01-15T00:15:25;3.90;99.90
19728;DHT22;10015;52.530;13.390;2024-01-15T00:17:53;3.80;99.90
19728;DHT22;10015;52.530;13.390;2024-01-15T00:20:19;3.70;99.90
19728;DHT22;10015;52.530;13.390;2024-01-15T00:22:45;3.70;99.90
19728;DHT22;10015;52.530;13.390;2024-01-15T00:25:11;3.60;99.90
19728;DHT22;10015;52.530;13.390;2024-01-15T00:27:37;3.50;99.90
19728;DHT22;10015;52.530;13.390;2024-01-15T00:30:03;3.50;99.90
19728;DHT22;10015;52.530;13.390;2024-01-15T00:32:30;3.40;99.90
19728;DHT22;10015;52.530;13.390;2024-01-15T00:34:57;3.40;99.90
19728;DHT22;10015;52.530;13.390;2024-01-15T00:37:23;3.50;99.90
19728;DHT22;10015;52.530;13.390;2024-01-15T00:39:49;3.50;99.90
19728;DHT22;10015;52.530;13.390;2024-01-15T00:42:14;3.50;99.90
19728;DHT22;10015;52.530;13.390;2024-01-15T00:44:41;3.50;99.90
19728;DHT22;10015;52.530;13.390;2024-01-15T00:47:07;3.50;99.90
19728;DHT22;10015;52.530;13.390;2024-01-15T00:49:33;3.50;99.90
19728;DHT22;10015;52.530;13.390;2024-01-15T00:51:59;3.60;99.90
19728;DHT22;10015;52.530;13.390;2024-01-15T00:54:25;3.70;99.90
19728;DHT22;10015;52.530;13.390;2024-01-15T00:56:51;3.70;99.90
19728;DHT22;10015;52.530;13.390;2024-01-15T00:59:16;3.60;99.90
19728;DHT22;10015;52.530;13.390;2024-01-15T01:01:43;3.50;99.90
19728;DHT22;10015;52.530;13.390;2024-01-15T01:04:10;3.60;99.90
19728;DHT22;10015;52.530;13.390;2024-01-15T01:06:35;3.60;99.90
19728;DHT22;10015;52.530;13.390;2024-01-15T01:09:01;3.50;99.90
19728;DHT22;10015;52.530;13.390;2024-01-15T01:11:27;3.60;99.90
19728;DHT22;10015;52.530;13.390;2024-01-15T01:13:54;3.70;99.90
19728;DHT22;10015;52.530;13.390;2024-01-15T01:16:22;3.80;99.90
19728;DHT22;10015;52.530;13.390;2024-01-15T01:18:48;3.80;99.90
19728;DHT22;10015;52.530;13.390;2024-01-15T01:21:14;3.70;99.90
19728;DHT22;10015;52.530;13.390;2024-01-15T01:23:40;3.70;99.90
19728;DHT22;10015;52.530;13.390;2024-01-15T01:26:06;3.60;99.90
19728;DHT22;10015;52.530;13.390;2024-01-15T01:28:32;3.60;99.90
19728;DHT22;10015;52.530;13.390;2024-01-15T01:30:59;3.60;99.90
19728;DHT22;10015;52.530;13.390;2024-01-15T01:33:25;3.70;99.90
19728;DHT22;10015;52.530;13.390;2024-01-15T01:35:51;3.50;99.90
19728;DHT22;10015;52.530;13.390;2024-01-15T01:38:17;3.60;99.90
19728;DHT22;10015;52.530;13.390;2024-01-15T01:40:42;3.60;99.90
19728;DHT22;10015;52.530;13.390;2024-01-15T01:43:09;3.60;99.90
19728;DHT22;10015;52.530;13.390;2024-01-15T01:45:36;3.60;99.90
19728;DHT22;10015;52.530;13.390;2024-01-15T01:48:02;3.50;99.90
19728;DHT22;10015;52.530;13.390;2024-01-15T01:50:30;3.50;99.90
19728;DHT22;10015;52.530;13.390;2024-01-15T01:52:57;3.50;99.90
19728;DHT22;10015;52.530;13.390;2024-01-15T01:55:25;3.50;99.90
19728;DHT22;10015;52.530;13.390;2024-01-15T01:57:52;3.50;99.90
19728;DHT22;10015;52.530;13.390;2024-01-15T02:00:18;3.60;99.90
19728;DHT22;10015;52.530;13.390;2024-01-15T02:02:43;3.50;99.90
19728;DHT22;10015;52.530;13.390;2024-01-15T02:05:11;3.50;99.90
19728;DHT22;10015;52.530;13.390;2024-01-15T02:07:37;3.50;99.90
19728;DHT22;10015;52.530;13.390;2024-01-15T02:10:04;3.40;99.90
19728;DHT22;10015;52.530;13.390;2024-01-15T02:12:32;3.50;99.90
19728;DHT22;10015;52.530;13.390;2024-01-15T02:14:57;3.50;99.90
19728;DHT22;10015;52.530;13.390;2024-01-15T02:17:23;3.50;99.90
19728;DHT22;10015;52.530;13.390;2024-01-15T02:19:51;3.50;99.90
19728;DHT22;10015;52.530;13.390;2024-01-15T02:22:16;3.40;99.90
19728;DHT22;10015;52.530;13.390;2024-01-15T02:24:43;3.30;99.90
19728;DHT22;10015;52.530;13.390;2024-01-15T02:27:09;3.40;99.90
19728;DHT22;10015;52.530;13.390;2024-01-15T02:29:35;3.50;99.90
19728;DHT22;10015;52.530;13.390;2024-01-15T02:32:05;3.40;99.90
19728;DHT22;10015;52.530;13.390;2024-01-15T02:34:34;3.50;99.90
19728;DHT22;10015;52.530;13.390;2024-01-15T02:37:00;3.40;99.90
19728;DHT22;10015;52.530;13.390;2024-01-15T02:39:26;3.50;99.90
19728;DHT22;10015;52.530;13.390;2024-01-15T02:41:52;3.40;99.90
19728;DHT22;10015;52.530;13.390;2024-01-15T02:44:18;3.40;99.90
19728;DHT22;10015;52.530;13.390;2024-01-15T02:46:44;3.40;99.90
19728;DHT22;10015;52.530;13.390;2024-01-15T02:49:10;3.40;99.90
19728;DHT22;10015;52.530;13.390;2024-01-15T02:51:35;3.40;99.90
19728;DHT22;10015;52.530;13.390;2024-01-15T02:54:02;3.50;99.90
19728;DHT22;10015;52.530;13.390;2024-01-15T02:56:28;3.40;99.90
19728;DHT22;10015;52.530;13.390;2024-01-15T02:58:54;3.50;99.90
19728;DHT22;10015;52.530;13.390;2024-01-15T03:01:20;3.40;99.90
19728;DHT22;10015;52.530;13.390;2024-01-15T03:03:46;3.30;99.90
19728;DHT22;10015;52.530;13.390;2024-01-15T03:06:12;3.30;99.90
19728;DHT22;10015;52.530;13.390;2024-01-15T03:08:37;3.40;99.90
19728;DHT22;10015;52.530;13.390;2024-01-15T03:11:03;3.40;99.90
19728;DHT22;10015;52.530;13.390;2024-01-15T03:13:29;3.40;99.90
19728;DHT22;10015;52.530;13.390;2024-01-15T03:15:55;3.40;99.90
19728;DHT22;10015;52.530;13.390;2024-01-15T03:18:21;3.40;99.90
19728;DHT22;10015;52.530;13.390;2024-01-15T03:20:47;3.30;99.90
19728;DHT22;10015;52.530;13.390;2024-01-15T03:23:13;3.40;99.90
19728;DHT22;10015;52.530;13.390;2024-01-15T03:25:39;3.40;99.90
19728;DHT22;10015;52.530;13.390;2024-01-15T03:28:05;3.50;99.90
19728;DHT22;10015;52.530;13.390;2024-01-15T03:30:31;3.40;99.90
19728;DHT22;10015;52.530;13.390;2024-01-15T03:32:56;3.30;99.90
19728;DHT22;10015;52.530;13.390;2024-01-15T03:35:22;3.30;99.90
19728;DHT22;10015;52.530;13.390;2024-01-15T03:37:48;3.40;99.90
19728;DHT22;10015;52.530;13.390;2024-01-15T03:40:14;3.20;99.90
19728;DHT22;10015;52.530;13.390;2024-01-15T03:42:40;3.30;99.90
19728;DHT22;10015;52.530;13.390;2024-01-15T03:45:06;3.30;99.90
19728;DHT22;10015;52.530;13.390;2024-01-15T03:47:32;3.30;99.90
19728;DHT22;10015;52.530;13.390;2024-01-15T03:49:58;3.20;99.90
19728;DHT22;10015;52.530;13.390;2024-01-15T03:52:24;3.10;99.90
19728;DHT22;10015;52.530;13.390;2024-01-15T03:54:50;3.10;99.90
19728;DHT22;10015;52.530;13.390;2024-01-15T03:57:15;3.10;99.90
19728;DHT22;10015;52.530;13.390;2024-01-15T03:59:41;3.10;99.90
19728;DHT22;10015;52.530;13.390;2024-01-15T04:02:07;3.10;99.90
19728;DHT22;10015;52.530;13.390;2024-01-15T04:04:33;3.10;99.90
19728;DHT22;10015;52.530;13.390;2024-01-15T04:06:59;3.10;99.90
19728;DHT22;10015;52.530;13.390;2024-01-15T04:09:25;3.20;99.90
19728;DHT22;10015;52.530;13.390;2024-01-15T04:11:51;3.20;99.90
19728;DHT22;10015;52.530;13.390;2024-01-15T04:14:16;3.30;99.90
19728;DHT22;10015;52.530;13.390;2024-01-15T04:16:42;3.10;99.90
19728;DHT22;10015;52.530;13.390;2024-01-15T04:19:08;3.00;99.90
19728;DHT22;10015;52.530;13.390;2024-01-15T04:21:34;3.00;99.90
19728;DHT22;10015;52.530;13.390;2024-01-15T04:24:00;3.00;99.90
19728;DHT22;10015;52.530;13.390;2024-01-15T04:26:26;3.00;99.90
19728;DHT22;10015;52.530;13.390;2024-01-15T04:28:53;3.10;99.90
19728;DHT22;10015;52.530;13.390;2024-01-15T04:31:23;3.10;99.90
19728;DHT22;10015;52.530;13.390;2024-01-15T04:33:49;3.10;99.90
19728;DHT22;10015;52.530;13.390;2024-01-15T04:36:15;3.20;99.90
19728;DHT22;10015;52.530;13.390;2024-01-15T04:38:41;3.30;99.90
19728;DHT22;10015;52.530;13.390;2024-01-15T04:41:11;3.40;99.90
19728;DHT22;10015;52.530;13.390;2024-01-15T04:43:37;3.50;99.90
19728;DHT22;10015;52.530;13.390;2024-01-15T04:46:03;3.50;99.90
19728;DHT22;10015;52.530;13.390;2024-01-15T04:48:30;3.50;99.90
19728;DHT22;10015;52.530;13.390;2024-01-15T04:50:56;3.40;99.90
19728;DHT22;10015;52.530;13.390;2024-01-15T04:53:22;3.40;99.90
19728;DHT22;10015;52.530;13.390;2024-01-15T04:55:48;3.40;99.90
19728;DHT22;10015;52.530;13.390;2024-01-15T04:58:14;3.40;99.90
19728;DHT22;10015;52.530;13.390;2024-01-15T05:00:40;3.50;99.90
19728;DHT22;10015;52.530;13.390;2024-01-15T05:03:06;3.50;99.90
19728;DHT22;10015;52.530;13.390;2024-01-15T05:05:31;3.40;99.90
19728;DHT22;10015;52.530;13.390;2024-01-15T05:07:57;3.30;99.90
19728;DHT22;10015;52.530;13.390;2024-01-15T05:10:23;3.20;99.90
19728;DHT22;10015;52.530;13.390;2024-01-15T05:12:49;3.20;99.90
19728;DHT22;10015;52.530;13.390;2024-01-15T05:15:15;3.30;99.90
19728;DHT22;10015;52.530;13.390;2024-01-15T05:17:40;3.30;99.90
19728;DHT22;10015;52.530;13.390;2024-01-15T05:20:07;3.40;99.90
19728;DHT22;10015;52.530;13.390;2024-01-15T05:22:32;3.50;99.90
19728;DHT22;10015;52.530;13.390;2024-01-15T05:25:00;3.60;99.90
19728;DHT22;10015;52.530;13.390;2024-01-15T05:27:26;3.60;99.90
19728;DHT22;10015;52.530;13.390;2024-01-15T05:29:52;3.60;99.90
19728;DHT22;10015;52.530;13.390;2024-01-15T05:32:18;3.50;99.90
19728;DHT22;10015;52.530;13.390;2024-01-15T05:34:44;3.40;99.90
19728;DHT22;10015;52.530;13.390;2024-01-15T05:37:10;3.30;99.90
19728;DHT22;10015;52.530;13.390;2024-01-15T05:39:36;3.40;99.90
19728;DHT22;10015;52.530;13.390;2024-01-15T05:42:02;3.40;99.90
19728;DHT22;10015;52.530;13.390;2024-01-15T05:44:28;3.40;99.90
19728;DHT22;10015;52.530;13.390;2024-01-15T05:46:54;3.40;99.90
19728;DHT22;10015;52.530;13.390;2024-01-15T05:49:20;3.50;99.90
19728;DHT22;10015;52.530;13.390;2024-01-15T05:51:46;3.40;99.90
19728;DHT22;10015;52.530;13.390;2024-01-15T05:54:12;3.40;99.90
19728;DHT22;10015;52.530;13.390;2024-01-15T05:56:39;3.40;99.90
19728;DHT22;10015;52.530;13.390;2024-01-15T05:59:05;3.50;99.90
19728;DHT22;10015;52.530;13.390;2024-01-15T06:01:31;3.60;99.90
19728;DHT22;10015;52.530;13.390;2024-01-15T06:03:57;3.50;99.90
19728;DHT22;10015;52.530;13.390;2024-01-15T06:06:23;3.60;99.90
19728;DHT22;10015;52.530;13.390;2024-01-15T06:08:49;3.50;99.90
19728;DHT22;10015;52.530;13.390;2024-01-15T06:11:15;3.50;99.90
19728;DHT22;10015;52.530;13.390;2024-01-15T06:13:41;3.50;99.90
19728;DHT22;10015;52.530;13.390;2024-01-15T06:16:14;3.30;99.90
19728;DHT22;10015;52.530;13.390;2024-01-15T06:18:41;3.40;99.90
19728;DHT22;10015;52.530;13.390;2024-01-15T06:21:07;3.30;99.90
19728;DHT22;10015;52.530;13.390;2024-01-15T06:23:33;3.40;99.90
19728;DHT22;10015;52.530;13.390;2024-01-15T06:25:59;3.30;99.90
19728;DHT22;10015;52.530;13.390;2024-01-15T06:28:25;3.40;99.90
19728;DHT22;10015;52.530;13.390;2024-01-15T06:30:51;3.40;99.90
19728;DHT22;10015;52.530;13.390;2024-01-15T06:33:17;3.40;99.90
19728;DHT22;10015;52.530;13.390;2024-01-15T06:35:43;3.30;99.90
19728;DHT22;10015;52.530;13.390;2024-01-15T06:38:09;3.30;99.90
19728;DHT22;10015;52.530;13.390;2024-01-15T06:40:34;3.40;99.90
19728;DHT22;10015;52.530;13.390;2024-01-15T06:43:01;3.50;99.90
19728;DHT22;10015;52.530;13.390;2024-01-15T06:45:27;3.50;99.90
19728;DHT22;10015;52.530;13.390;2024-01-15T06:47:53;3.40;99.90
19728;DHT22;10015;52.530;13.390;2024-01-15T06:50:18;3.50;99.90
19728;DHT22;10015;52.530;13.390;2024-01-15T06:52:44;3.50;99.90
19728;DHT22;10015;52.530;13.390;2024-01-15T06:55:11;3.40;99.90
19728;DHT22;10015;52.530;13.390;2024-01-15T06:57:37;3.40;99.90
19728;DHT22;10015;52.530;13.390;2024-01-15T07:00:03;3.50;99.90
19728;DHT22;10015;52.530;13.390;2024-01-15T07:02:33;3.50;99.90
19728;DHT22;10015;52.530;13.390;2024-01-15T07:04:59;3.50;99.90
19728;DHT22;10015;52.530;13.390;2024-01-15T07:07:24;3.50;99.90
19728;DHT22;10015;52.530;13.390;2024-01-15T07:09:54;3.50;99.90
19728;DHT22;10015;52.530;13.390;2024-01-15T07:12:20;3.50;99.90
19728;DHT22;10015;52.530;13.390;2024-01-15T07:14:46;3.50;99.90
19728;DHT22;10015;52.530;13.390;2024-01-15T07:17:12;3.40;99.90
19728;DHT22;10015;52.530;13.390;2024-01-15T07:19:38;3.40;99.90
19728;DHT22;10015;52.530;13.390;2024-01-15T07:22:04;3.50;99.90
19728;DHT22;10015;52.530;13.390;2024-01-15T07:24:32;3.50;99.90
19728;DHT22;10015;52.530;13.390;2024-01-15T07:27:00;3.50;99.90
19728;DHT22;10015;52.530;13.390;2024-01-15T07:29:26;3.60;99.90
19728;DHT22;10015;52.530;13.390;2024-01-15T07:31:52;3.50;99.90
19728;DHT22;10015;52.530;13.390;2024-01-15T07:34:19;3.40;99.90
19728;DHT22;10015;52.530;13.390;2024-01-15T07:36:45;3.50;99.90
19728;DHT22;10015;52.530;13.390;2024-01-15T07:39:14;3.50;99.90
19728;DHT22;10015;52.530;13.390;2024-01-15T07:41:40;3.50;99.90
19728;DHT22;10015;52.530;13.390;2024-01-15T07:44:06;3.60;99.90
19728;DHT22;10015;52.530;13.390;2024-01-15T07:46:32;3.70;99.90
19728;DHT22;10015;52.530;13.390;2024-01-15T07:48:59;3.70;99.90
19728;DHT22;10015;52.530;13.390;2024-01-15T07:51:25;3.60;99.90
19728;DHT22;10015;52.530;13.390;2024-01-15T07:53:53;3.70;99.90
19728;DHT22;10015;52.530;13.390;2024-01-15T07:56:19;3.70;99.90
19728;DHT22;10015;52.530;13.390;2024-01-15T07:58:45;3.70;99.90
19728;DHT22;10015;52.530;13.390;2024-01-15T08:01:12;3.80;99.90
19728;DHT22;10015;52.530;13.390;2024-01-15T08:03:38;3.80;99.90
19728;DHT22;10015;52.530;13.390;2024-01-15T08:06:05;3.90;99.90
19728;DHT22;10015;52.530;13.390;2024-01-15T08:08:32;4.00;99.90
19728;DHT22;10015;52.530;13.390;2024-01-15T08:10:58;4.00;99.90
19728;DHT22;10015;52.530;13.390;2024-01-15T08:13:26;3.90;99.90
19728;DHT22;10015;52.530;13.390;2024-01-15T08:15:53;4.00;99.90
19728;DHT22;10015;52.530;13.390;2024-01-15T08:18:19;4.00;99.90
19728;DHT22;10015;52.530;13.390;2024-01-15T08:20:47;3.90;99.90
19728;DHT22;10015;52.530;13.390;2024-01-15T08:23:13;4.00;99.90
19728;DHT22;10015;52.530;13.390;2024-01-15T08:25:39;4.10;99.90
19728;DHT22;10015;52.530;13.390;2024-01-15T08:28:06;4.00;99.90
19728;DHT22;10015;52.530;13.390;2024-01-15T08:30:31;4.10;99.90
19728;DHT22;10015;52.530;13.390;2024-01-15T08:32:57;4.00;99.90
19728;DHT22;10015;52.530;13.390;2024-01-15T08:35:25;4.00;99.90
19728;DHT22;10015;52.530;13.390;2024-01-15T08:37:51;4.00;99.90
19728;DHT22;10015;52.530;13.390;2024-01-15T08:40:18;3.90;99.90
19728;DHT22;10015;52.530;13.390;2024-01-15T08:42:44;3.90;99.90
19728;DHT22;10015;52.530;13.390;2024-01-15T08:45:11;3.90;99.90
19728;DHT22;10015;52.530;13.390;2024-01-15T08:47:37;4.00;99.90
19728;DHT22;10015;52.530;13.390;2024-01-15T08:50:04;4.10;99.90
19728;DHT22;10015;52.530;13.390;2024-01-15T08:52:31;4.10;99.90
19728;DHT22;10015;52.530;13.390;2024-01-15T08:54:57;4.10;99.90
19728;DHT22;10015;52.530;13.390;2024-01-15T08:57:24;3.90;99.90
19728;DHT22;10015;52.530;13.390;2024-01-15T08:59:50;3.80;99.90
19728;DHT22;10015;52.530;13.390;2024-01-15T09:02:17;3.90;99.90
19728;DHT22;10015;52.530;13.390;2024-01-15T09:04:43;3.80;99.90
19728;DHT22;10015;52.530;13.390;2024-01-15T09:07:09;3.80;99.90
19728;DHT22;10015;52.530;13.390;2024-01-15T09:09:35;3.80;99.90
19728;DHT22;10015;52.530;13.390;2024-01-15T09:12:02;3.80;99.90
19728;DHT22;10015;52.530;13.390;2024-01-15T09:14:28;3.90;99.90
19728;DHT22;10015;52.530;13.390;2024-01-15T09:16:55;3.90;99.90
19728;DHT22;10015;52.530;13.390;2024-01-15T09:19:22;3.90;99.90
19728;DHT22;10015;52.530;13.390;2024-01-15T09:21:48;3.70;99.90
19728;DHT22;10015;52.530;13.390;2024-01-15T09:24:14;3.70;99.90
19728;DHT22;10015;52.530;13.390;2024-01-15T09:26:40;3.70;99.90
19728;DHT22;10015;52.530;13.390;2024-01-15T09:29:06;3.80;99.90
19728;DHT22;10015;52.530;13.390;2024-01-15T09:31:32;3.80;99.90
19728;DHT22;10015;52.530;13.390;2024-01-15T09:33:59;3.80;99.90
19728;DHT22;10015;52.530;13.390;2024-01-15T09:36:26;3.80;99.90
19728;DHT22;10015;52.530;13.390;2024-01-15T09:38:52;3.80;99.90
19728;DHT22;10015;52.530;13.390;2024-01-15T09:41:19;3.90;99.90
19728;DHT22;10015;52.530;13.390;2024-01-15T09:43:45;3.90;99.90
19728;DHT22;10015;52.530;13.390;2024-01-15T09:46:12;4.00;99.90
19728;DHT22;10015;52.530;13.390;2024-01-15T09:48:38;4.10;99.90
19728;DHT22;10015;52.530;13.390;2024-01-15T09:51:06;4.20;99.90
19728;DHT22;10015;52.530;13.390;2024-01-15T09:53:34;4.30;99.90
19728;DHT22;10015;52.530;13.390;2024-01-15T09:56:04;4.40;99.90
19728;DHT22;10015;52.530;13.390;2024-01-15T09:58:31;4.30;99.90
19728;DHT22;10015;52.530;13.390;2024-01-15T10:00:58;4.40;99.90
19728;DHT22;10015;52.530;13.390;2024-01-15T10:03:24;4.40;99.90
19728;DHT22;10015;52.530;13.390;2024-01-15T10:05:50;4.20;99.90
19728;DHT22;10015;52.530;13.390;2024-01-15T10:08:17;4.10;99.90
19728;DHT22;10015;52.530;13.390;2024-01-15T10:10:44;4.10;99.90
19728;DHT22;10015;52.530;13.390;2024-01-15T10:13:11;4.20;99.90
19728;DHT22;10015;52.530;13.390;2024-01-15T10:15:44;4.30;99.90
19728;DHT22;10015;52.530;13.390;2024-01-15T10:18:12;4.20;99.90
19728;DHT22;10015;52.530;13.390;2024-01-15T10:20:40;4.20;99.90
19728;DHT22;10015;52.530;13.390;2024-01-15T10:23:06;4.20;99.90
19728;DHT22;10015;52.530;13.390;2024-01-15T10:25:32;4.20;99.90
19728;DHT22;10015;52.530;13.390;2024-01-15T10:28:03;4.30;99.90
19728;DHT22;10015;52.530;13.390;2024-01-15T10:30:31;4.40;99.90
19728;DHT22;10015;52.530;13.390;2024-01-15T10:32:59;4.40;99.90
19728;DHT22;10015;52.530;13.390;2024-01-15T10:35:30;4.30;99.90
19728;DHT22;10015;52.530;13.390;2024-01-15T10:37:56;4.40;99.90
19728;DHT22;10015;52.530;13.390;2024-01-15T10:40:23;4.30;99.90
19728;DHT22;10015;52.530;13.390;2024-01-15T10:42:49;4.30;99.90
19728;DHT22;10015;52.530;13.390;2024-01-15T10:45:17;4.30;99.90
19728;DHT22;10015;52.530;13.390;2024-01-15T10:47:45;4.40;99.90
19728;DHT22;10015;52.530;13.390;2024-01-15T10:50:12;4.30;99.90
19728;DHT22;10015;52.530;13.390;2024-01-15T10:52:39;4.40;99.90
19728;DHT22;10015;52.530;13.390;2024-01-15T10:55:09;4.30;99.90
19728;DHT22;10015;52.530;13.390;2024-01-15T10:57:37;4.30;99.90
19728;DHT22;10015;52.530;13.390;2024-01-15T11:00:05;4.40;99.90
19728;DHT22;10015;52.530;13.390;2024-01-15T11:02:33;4.40;99.90
19728;DHT22;10015;52.530;13.390;2024-01-15T11:05:00;4.50;99.90
19728;DHT22;10015;52.530;13.390;2024-01-15T11:07:27;4.50;99.90
19728;DHT22;10015;52.530;13.390;2024-01-15T11:09:55;4.40;99.90
19728;DHT22;10015;52.530;13.390;2024-01-15T11:12:25;4.40;99.90
19728;DHT22;10015;52.530;13.390;2024-01-15T11:14:51;4.40;99.90
19728;DHT22;10015;52.530;13.390;2024-01-15T11:17:19;4.40;99.90
19728;DHT22;10015;52.530;13.390;2024-01-15T11:19:50;4.40;99.90
19728;DHT22;10015;52.530;13.390;2024-01-15T11:22:48;4.40;99.90
19728;DHT22;10015;52.530;13.390;2024-01-15T11:25:14;4.30;99.90
19728;DHT22;10015;52.530;13.390;2024-01-15T11:27:52;4.20;99.90
19728;DHT22;10015;52.530;13.390;2024-01-15T11:30:24;4.20;99.90
19728;DHT22;10015;52.530;13.390;2024-01-15T11:32:51;4.20;99.90
19728;DHT22;10015;52.530;13.390;2024-01-15T11:35:18;4.20;99.90
19728;DHT22;10015;52.530;13.390;2024-01-15T11:42:58;4.30;99.90
19728;DHT22;10015;52.530;13.390;2024-01-15T11:45:24;4.40;99.90
19728;DHT22;10015;52.530;13.390;2024-01-15T11:50:43;4.10;99.90
19728;DHT22;10015;52.530;13.390;2024-01-15T11:55:51;4.00;99.90
19728;DHT22;10015;52.530;13.390;2024-01-15T11:58:19;4.10;99.90
19728;DHT22;10015;52.530;13.390;2024-01-15T12:00:48;4.00;99.90
19728;DHT22;10015;52.530;13.390;2024-01-15T12:03:23;3.90;99.90
19728;DHT22;10015;52.530;13.390;2024-01-15T12:05:49;3.70;99.90
19728;DHT22;10015;52.530;13.390;2024-01-15T12:08:20;3.70;99.90
19728;DHT22;10015;52.530;13.390;2024-01-15T12:10:46;3.70;99.90
19728;DHT22;10015;52.530;13.390;2024-01-15T12:13:12;3.70;99.90
19728;DHT22;10015;52.530;13.390;2024-01-15T12:15:39;3.70;99.90
19728;DHT22;10015;52.530;13.390;2024-01-15T12:18:08;3.80;99.90
19728;DHT22;10015;52.530;13.390;2024-01-15T12:20:35;3.80;99.90
19728;DHT22;10015;52.530;13.390;2024-01-15T12:23:02;3.90;99.90
19728;DHT22;10015;52.530;13.390;2024-01-15T12:25:36;3.90;99.90
19728;DHT22;10015;52.530;13.390;2024-01-15T12:28:03;3.90;99.90
19728;DHT22;10015;52.530;13.390;2024-01-15T12:30:30;3.70;99.90
19728;DHT22;10015;52.530;13.390;2024-01-15T12:33:04;3.70;99.90
19728;DHT22;10015;52.530;13.390;2024-01-15T12:35:31;3.80;99.90
19728;DHT22;10015;52.530;13.390;2024-01-15T12:37:59;3.80;99.90
19728;DHT22;10015;52.530;13.390;2024-01-15T12:40:26;3.70;99.90
19728;DHT22;10015;52.530;13.390;2024-01-15T12:42:52;3.70;99.90
19728;DHT22;10015;52.530;13.390;2024-01-15T12:45:19;3.70;99.90
19728;DHT22;10015;52.530;13.390;2024-01-15T12:47:46;3.70;99.90
19728;DHT22;10015;52.530;13.390;2024-01-15T12:50:13;3.70;99.90
19728;DHT22;10015;52.530;13.390;2024-01-15T12:52:41;3.80;99.90
19728;DHT22;10015;52.530;13.390;2024-01-15T12:55:08;3.60;99.90
19728;DHT22;10015;52.530;13.390;2024-01-15T12:57:35;3.60;99.90
19728;DHT22;10015;52.530;13.390;2024-01-15T13:00:02;3.50;99.90
19728;DHT22;10015;52.530;13.390;2024-01-15T13:02:33;3.50;99.90
19728;DHT22;10015;52.530;13.390;2024-01-15T13:05:00;3.60;99.90
19728;DHT22;10015;52.530;13.390;2024-01-15T13:07:27;3.60;99.90
19728;DHT22;10015;52.530;13.390;2024-01-15T13:09:53;3.60;99.90
19728;DHT22;10015;52.530;13.390;2024-01-15T13:12:20;3.60;99.90
19728;DHT22;10015;52.530;13.390;2024-01-15T13:14:46;3.70;99.90
19728;DHT22;10015;52.530;13.390;2024-01-15T13:17:15;3.70;99.90
19728;DHT22;10015;52.530;13.390;2024-01-15T13:19:42;3.60;99.90
19728;DHT22;10015;52.530;13.390;2024-01-15T13:22:08;3.60;99.90
19728;DHT22;10015;52.530;13.390;2024-01-15T13:24:38;3.60;99.90
19728;DHT22;10015;52.530;13.390;2024-01-15T13:27:05;3.60;99.90
19728;DHT22;10015;52.530;13.390;2024-01-15T13:29:32;3.60;99.90
19728;DHT22;10015;52.530;13.390;2024-01-15T13:31:58;3.70;99.90
19728;DHT22;10015;52.530;13.390;2024-01-15T13:34:26;3.70;99.90
19728;DHT22;10015;52.530;13.390;2024-01-15T13:36:52;3.70;99.90
19728;DHT22;10015;52.530;13.390;2024-01-15T13:39:19;3.70;99.90
19728;DHT22;10015;52.530;13.390;2024-01-15T13:41:49;3.70;99.90
19728;DHT22;10015;52.530;13.390;2024-01-15T13:44:15;3.90;99.90
19728;DHT22;10015;52.530;13.390;2024-01-15T13:46:41;3.90;99.90
19728;DHT22;10015;52.530;13.390;2024-01-15T13:49:08;3.90;99.90
19728;DHT22;10015;52.530;13.390;2024-01-15T13:51:35;3.80;99.90
19728;DHT22;10015;52.530;13.390;2024-01-15T13:54:02;3.70;99.90
19728;DHT22;10015;52.530;13.390;2024-01-15T13:56:30;3.60;99.90
19728;DHT22;10015;52.530;13.390;2024-01-15T13:58:58;3.60;99.90
19728;DHT22;10015;52.530;13.390;2024-01-15T14:01:25;3.50;99.90
19728;DHT22;10015;52.530;13.390;2024-01-15T14:03:53;3.50;99.90
19728;DHT22;10015;52.530;13.390;2024-01-15T14:06:20;3.50;99.90
19728;DHT22;10015;52.530;13.390;2024-01-15T14:08:46;3.50;99.90
19728;DHT22;10015;52.530;13.390;2024-01-15T14:11:13;3.60;99.90
19728;DHT22;10015;52.530;13.390;2024-01-15T14:13:39;3.70;99.90
19728;DHT22;10015;52.530;13.390;2024-01-15T14:16:05;3.70;99.90
19728;DHT22;10015;52.530;13.390;2024-01-15T14:18:31;3.70;99.90
19728;DHT22;10015;52.530;13.390;2024-01-15T14:20:58;3.60;99.90
19728;DHT22;10015;52.530;13.390;2024-01-15T14:23:24;3.60;99.90
19728;DHT22;10015;52.530;13.390;2024-01-15T14:25:51;3.60;99.90
19728;DHT22;10015;52.530;13.390;2024-01-15T14:28:17;3.50;99.90
19728;DHT22;10015;52.530;13.390;2024-01-15T14:30:44;3.60;99.90
19728;DHT22;10015;52.530;13.390;2024-01-15T14:33:10;3.50;99.90
19728;DHT22;10015;52.530;13.390;2024-01-15T14:35:36;3.50;99.90
19728;DHT22;10015;52.530;13.390;2024-01-15T14:38:03;3.50;99.90
19728;DHT22;10015;52.530;13.390;2024-01-15T14:40:29;3.40;99.90
19728;DHT22;10015;52.530;13.390;2024-01-15T14:42:55;3.30;99.90
19728;DHT22;10015;52.530;13.390;2024-01-15T14:45:21;3.30;99.90
19728;DHT22;10015;52.530;13.390;2024-01-15T14:47:48;3.30;99.90
19728;DHT22;10015;52.530;13.390;2024-01-15T14:50:15;3.30;99.90
19728;DHT22;10015;52.530;13.390;2024-01-15T14:52:41;3.30;99.90
19728;DHT22;10015;52.530;13.390;2024-01-15T14:55:12;3.20;99.90
19728;DHT22;10015;52.530;13.390;2024-01-15T14:57:38;3.30;99.90
19728;DHT22;10015;52.530;13.390;2024-01-15T15:00:06;3.30;99.90
19728;DHT22;10015;52.530;13.390;2024-01-15T15:02:34;3.30;99.90
19728;DHT22;10015;52.530;13.390;2024-01-15T15:05:02;3.30;99.90
19728;DHT22;10015;52.530;13.390;2024-01-15T15:07:28;3.40;99.90
19728;DHT22;10015;52.530;13.390;2024-01-15T15:09:54;3.30;99.90
19728;DHT22;10015;52.530;13.390;2024-01-15T15:12:21;3.20;99.90
19728;DHT22;10015;52.530;13.390;2024-01-15T15:14:47;3.30;99.90
19728;DHT22;10015;52.530;13.390;2024-01-15T15:17:14;3.40;99.90
19728;DHT22;10015;52.530;13.390;2024-01-15T15:19:40;3.50;99.90
19728;DHT22;10015;52.530;13.390;2024-01-15T15:22:07;3.40;99.90
19728;DHT22;10015;52.530;13.390;2024-01-15T15:24:39;3.50;99.90
19728;DHT22;10015;52.530;13.390;2024-01-15T15:27:06;3.40;99.90
19728;DHT22;10015;52.530;13.390;2024-01-15T15:29:35;3.40;99.90
19728;DHT22;10015;52.530;13.390;2024-01-15T15:32:01;3.50;99.90
19728;DHT22;10015;52.530;13.390;2024-01-15T15:34:28;3.50;99.90
19728;DHT22;10015;52.530;13.390;2024-01-15T15:36:55;3.60;99.90